sensor_id;sensor_type;location;lat;lon;timestamp;P1;durP1;ratioP1;P2;durP2;ratioP2
69083;SDS011;56185;48.526;9.044;2023-07-28T00:00:00;5.87;;;2.93;;
69083;SDS011;56185;48.526;9.044;2023-07-28T00:02:25;3.70;;;2.97;;
69083;SDS011;56185;48.526;9.044;2023-07-28T00:04:50;10.23;;;3.00;;
69083;SDS011;56185;48.526;9.044;2023-07-28T00:07:17;4.43;;;3.07;;
69083;SDS011;56185;48.526;9.044;2023-07-28T00:09:42;7.28;;;3.25;;
69083;SDS011;56185;48.526;9.044;2023-07-28T00:12:08;9.07;;;2.93;;
69083;SDS011;56185;48.526;9.044;2023-07-28T00:14:33;6.63;;;3.20;;
69083;SDS011;56185;48.526;9.044;2023-07-28T00:16:58;4.83;;;3.30;;
69083;SDS011;56185;48.526;9.044;2023-07-28T00:19:23;4.53;;;3.10;;
69083;SDS011;56185;48.526;9.044;2023-07-28T00:21:49;4.77;;;3.17;;
69083;SDS011;56185;48.526;9.044;2023-07-28T00:24:15;6.57;;;3.03;;
69083;SDS011;56185;48.526;9.044;2023-07-28T00:26:41;4.00;;;3.00;;
69083;SDS011;56185;48.526;9.044;2023-07-28T00:29:06;4.75;;;2.90;;
69083;SDS011;56185;48.526;9.044;2023-07-28T00:31:32;6.43;;;2.92;;
69083;SDS011;56185;48.526;9.044;2023-07-28T00:33:57;4.85;;;2.70;;
69083;SDS011;56185;48.526;9.044;2023-07-28T00:36:22;6.50;;;2.60;;
69083;SDS011;56185;48.526;9.044;2023-07-28T00:38:48;3.57;;;2.87;;
69083;SDS011;56185;48.526;9.044;2023-07-28T00:41:13;6.30;;;2.60;;
69083;SDS011;56185;48.526;9.044;2023-07-28T00:43:38;4.43;;;2.17;;
69083;SDS011;56185;48.526;9.044;2023-07-28T00:46:03;4.00;;;2.60;;
69083;SDS011;56185;48.526;9.044;2023-07-28T00:48:29;4.00;;;2.30;;
69083;SDS011;56185;48.526;9.044;2023-07-28T00:50:54;3.83;;;2.70;;
69083;SDS011;56185;48.526;9.044;2023-07-28T00:53:19;4.97;;;2.70;;
69083;SDS011;56185;48.526;9.044;2023-07-28T00:55:45;5.70;;;2.90;;
69083;SDS011;56185;48.526;9.044;2023-07-28T00:58:10;6.93;;;2.95;;
69083;SDS011;56185;48.526;9.044;2023-07-28T01:00:36;5.27;;;2.77;;
69083;SDS011;56185;48.526;9.044;2023-07-28T01:03:01;4.43;;;2.70;;
69083;SDS011;56185;48.526;9.044;2023-07-28T01:05:38;4.43;;;2.80;;
69083;SDS011;56185;48.526;9.044;2023-07-28T01:08:27;4.38;;;2.67;;
69083;SDS011;56185;48.526;9.044;2023-07-28T01:13:22;3.78;;;2.60;;
69083;SDS011;56185;48.526;9.044;2023-07-28T01:15:48;3.93;;;2.50;;
69083;SDS011;56185;48.526;9.044;2023-07-28T01:18:13;4.33;;;2.57;;
69083;SDS011;56185;48.526;9.044;2023-07-28T01:20:38;3.83;;;2.60;;
69083;SDS011;56185;48.526;9.044;2023-07-28T01:23:07;5.03;;;2.60;;
69083;SDS011;56185;48.526;9.044;2023-07-28T01:25:52;8.13;;;2.60;;
69083;SDS011;56185;48.526;9.044;2023-07-28T01:28:28;4.03;;;2.65;;
69083;SDS011;56185;48.526;9.044;2023-07-28T01:30:54;3.70;;;2.70;;
69083;SDS011;56185;48.526;9.044;2023-07-28T01:33:19;4.47;;;2.47;;
69083;SDS011;56185;48.526;9.044;2023-07-28T01:35:45;6.03;;;2.85;;
69083;SDS011;56185;48.526;9.044;2023-07-28T01:38:10;4.23;;;2.67;;
69083;SDS011;56185;48.526;9.044;2023-07-28T01:40:35;4.30;;;2.80;;
69083;SDS011;56185;48.526;9.044;2023-07-28T01:43:00;5.43;;;2.77;;
69083;SDS011;56185;48.526;9.044;2023-07-28T01:45:26;4.70;;;2.77;;
69083;SDS011;56185;48.526;9.044;2023-07-28T01:47:51;5.20;;;2.30;;
69083;SDS011;56185;48.526;9.044;2023-07-28T01:50:16;3.28;;;2.45;;
69083;SDS011;56185;48.526;9.044;2023-07-28T01:52:41;4.75;;;3.00;;
69083;SDS011;56185;48.526;9.044;2023-07-28T01:55:07;5.07;;;2.73;;
69083;SDS011;56185;48.526;9.044;2023-07-28T03:10:07;3.95;;;2.75;;
69083;SDS011;56185;48.526;9.044;2023-07-28T03:12:32;6.25;;;3.20;;
69083;SDS011;56185;48.526;9.044;2023-07-28T03:14:58;4.47;;;2.53;;
69083;SDS011;56185;48.526;9.044;2023-07-28T03:17:23;5.10;;;2.70;;
69083;SDS011;56185;48.526;9.044;2023-07-28T03:19:48;4.80;;;2.77;;
69083;SDS011;56185;48.526;9.044;2023-07-28T03:22:13;5.40;;;2.70;;
69083;SDS011;56185;48.526;9.044;2023-07-28T03:24:39;3.20;;;2.50;;
69083;SDS011;56185;48.526;9.044;2023-07-28T03:27:04;3.70;;;2.50;;
69083;SDS011;56185;48.526;9.044;2023-07-28T03:29:30;4.47;;;2.63;;
69083;SDS011;56185;48.526;9.044;2023-07-28T03:31:55;4.70;;;2.70;;
69083;SDS011;56185;48.526;9.044;2023-07-28T03:34:20;6.73;;;2.73;;
69083;SDS011;56185;48.526;9.044;2023-07-28T03:36:45;4.17;;;2.67;;
69083;SDS011;56185;48.526;9.044;2023-07-28T03:39:10;4.13;;;2.40;;
69083;SDS011;56185;48.526;9.044;2023-07-28T03:41:36;4.60;;;2.70;;
69083;SDS011;56185;48.526;9.044;2023-07-28T03:44:01;7.18;;;2.80;;
69083;SDS011;56185;48.526;9.044;2023-07-28T03:46:26;4.55;;;2.53;;
69083;SDS011;56185;48.526;9.044;2023-07-28T03:48:51;3.87;;;2.50;;
69083;SDS011;56185;48.526;9.044;2023-07-28T03:51:17;3.60;;;2.50;;
69083;SDS011;56185;48.526;9.044;2023-07-28T03:53:42;4.40;;;2.70;;
69083;SDS011;56185;48.526;9.044;2023-07-28T03:56:07;7.43;;;2.80;;
69083;SDS011;56185;48.526;9.044;2023-07-28T03:58:32;4.43;;;2.90;;
69083;SDS011;56185;48.526;9.044;2023-07-28T04:00:58;4.60;;;2.63;;
69083;SDS011;56185;48.526;9.044;2023-07-28T04:03:23;4.90;;;2.70;;
69083;SDS011;56185;48.526;9.044;2023-07-28T04:05:48;4.07;;;2.87;;
69083;SDS011;56185;48.526;9.044;2023-07-28T04:08:13;4.67;;;2.90;;
69083;SDS011;56185;48.526;9.044;2023-07-28T04:10:39;4.00;;;3.20;;
69083;SDS011;56185;48.526;9.044;2023-07-28T04:13:04;4.82;;;3.20;;
69083;SDS011;56185;48.526;9.044;2023-07-28T04:15:29;5.07;;;3.03;;
69083;SDS011;56185;48.526;9.044;2023-07-28T04:17:54;3.73;;;2.80;;
69083;SDS011;56185;48.526;9.044;2023-07-28T04:20:20;5.27;;;2.73;;
69083;SDS011;56185;48.526;9.044;2023-07-28T04:22:45;5.05;;;2.90;;
69083;SDS011;56185;48.526;9.044;2023-07-28T04:25:10;6.30;;;2.88;;
69083;SDS011;56185;48.526;9.044;2023-07-28T04:27:35;5.87;;;2.77;;
69083;SDS011;56185;48.526;9.044;2023-07-28T04:30:01;4.38;;;2.67;;
69083;SDS011;56185;48.526;9.044;2023-07-28T04:32:26;5.75;;;2.90;;
69083;SDS011;56185;48.526;9.044;2023-07-28T04:34:51;3.83;;;2.75;;
69083;SDS011;56185;48.526;9.044;2023-07-28T04:37:17;3.92;;;2.60;;
69083;SDS011;56185;48.526;9.044;2023-07-28T04:39:42;5.67;;;2.60;;
69083;SDS011;56185;48.526;9.044;2023-07-28T04:42:07;4.93;;;2.83;;
69083;SDS011;56185;48.526;9.044;2023-07-28T04:44:33;8.03;;;3.37;;
69083;SDS011;56185;48.526;9.044;2023-07-28T04:46:58;5.22;;;3.33;;
69083;SDS011;56185;48.526;9.044;2023-07-28T04:49:23;7.83;;;4.00;;
69083;SDS011;56185;48.526;9.044;2023-07-28T04:51:48;6.47;;;3.50;;
69083;SDS011;56185;48.526;9.044;2023-07-28T04:54:13;6.67;;;3.67;;
69083;SDS011;56185;48.526;9.044;2023-07-28T04:56:39;7.33;;;4.20;;
69083;SDS011;56185;48.526;9.044;2023-07-28T04:59:04;8.33;;;4.60;;
69083;SDS011;56185;48.526;9.044;2023-07-28T05:01:29;7.70;;;3.90;;
69083;SDS011;56185;48.526;9.044;2023-07-28T05:03:54;9.23;;;3.73;;
69083;SDS011;56185;48.526;9.044;2023-07-28T05:06:20;5.20;;;3.20;;
69083;SDS011;56185;48.526;9.044;2023-07-28T05:08:45;4.20;;;3.00;;
69083;SDS011;56185;48.526;9.044;2023-07-28T05:11:10;4.40;;;2.90;;
69083;SDS011;56185;48.526;9.044;2023-07-28T05:13:35;6.20;;;2.83;;
69083;SDS011;56185;48.526;9.044;2023-07-28T05:16:01;6.07;;;3.10;;
69083;SDS011;56185;48.526;9.044;2023-07-28T05:18:26;3.33;;;2.60;;
69083;SDS011;56185;48.526;9.044;2023-07-28T05:20:51;6.85;;;2.55;;
69083;SDS011;56185;48.526;9.044;2023-07-28T05:23:16;4.63;;;2.80;;
69083;SDS011;56185;48.526;9.044;2023-07-28T05:25:42;6.10;;;2.90;;
69083;SDS011;56185;48.526;9.044;2023-07-28T05:28:07;4.17;;;2.87;;
69083;SDS011;56185;48.526;9.044;2023-07-28T05:30:32;3.70;;;2.53;;
69083;SDS011;56185;48.526;9.044;2023-07-28T05:32:57;5.28;;;2.80;;
69083;SDS011;56185;48.526;9.044;2023-07-28T05:35:23;5.03;;;2.60;;
69083;SDS011;56185;48.526;9.044;2023-07-28T05:37:48;5.00;;;2.63;;
69083;SDS011;56185;48.526;9.044;2023-07-28T05:40:13;5.80;;;2.97;;
69083;SDS011;56185;48.526;9.044;2023-07-28T05:42:38;4.38;;;2.50;;
69083;SDS011;56185;48.526;9.044;2023-07-28T05:45:04;4.07;;;2.78;;
69083;SDS011;56185;48.526;9.044;2023-07-28T05:47:30;7.28;;;2.97;;
69083;SDS011;56185;48.526;9.044;2023-07-28T05:49:55;6.25;;;3.10;;
69083;SDS011;56185;48.526;9.044;2023-07-28T05:52:20;5.63;;;3.05;;
69083;SDS011;56185;48.526;9.044;2023-07-28T05:54:46;6.00;;;3.13;;
69083;SDS011;56185;48.526;9.044;2023-07-28T05:57:11;5.60;;;3.10;;
69083;SDS011;56185;48.526;9.044;2023-07-28T05:59:36;4.20;;;2.80;;
69083;SDS011;56185;48.526;9.044;2023-07-28T06:02:01;5.17;;;3.13;;
69083;SDS011;56185;48.526;9.044;2023-07-28T06:04:27;4.82;;;3.10;;
69083;SDS011;56185;48.526;9.044;2023-07-28T06:06:52;4.27;;;3.07;;
69083;SDS011;56185;48.526;9.044;2023-07-28T06:09:17;3.97;;;3.23;;
69083;SDS011;56185;48.526;9.044;2023-07-28T06:11:43;5.40;;;3.37;;
69083;SDS011;56185;48.526;9.044;2023-07-28T06:14:08;6.43;;;3.43;;
69083;SDS011;56185;48.526;9.044;2023-07-28T06:16:33;4.00;;;2.90;;
69083;SDS011;56185;48.526;9.044;2023-07-28T06:18:58;5.95;;;3.40;;
69083;SDS011;56185;48.526;9.044;2023-07-28T06:21:24;6.93;;;3.40;;
69083;SDS011;56185;48.526;9.044;2023-07-28T06:23:49;5.80;;;3.30;;
69083;SDS011;56185;48.526;9.044;2023-07-28T06:26:14;6.47;;;3.43;;
69083;SDS011;56185;48.526;9.044;2023-07-28T06:28:39;6.93;;;3.30;;
69083;SDS011;56185;48.526;9.044;2023-07-28T06:31:04;14.20;;;3.80;;
69083;SDS011;56185;48.526;9.044;2023-07-28T06:33:30;5.17;;;3.17;;
69083;SDS011;56185;48.526;9.044;2023-07-28T06:35:55;5.70;;;3.60;;
69083;SDS011;56185;48.526;9.044;2023-07-28T06:38:20;7.27;;;3.33;;
69083;SDS011;56185;48.526;9.044;2023-07-28T06:40:45;5.87;;;3.00;;
69083;SDS011;56185;48.526;9.044;2023-07-28T06:43:11;5.83;;;3.37;;
69083;SDS011;56185;48.526;9.044;2023-07-28T06:45:36;5.82;;;3.58;;
69083;SDS011;56185;48.526;9.044;2023-07-28T06:48:01;3.87;;;2.97;;
69083;SDS011;56185;48.526;9.044;2023-07-28T06:50:27;5.13;;;3.20;;
69083;SDS011;56185;48.526;9.044;2023-07-28T06:52:52;5.67;;;3.30;;
69083;SDS011;56185;48.526;9.044;2023-07-28T06:55:17;5.83;;;3.33;;
69083;SDS011;56185;48.526;9.044;2023-07-28T06:57:42;6.40;;;3.60;;
69083;SDS011;56185;48.526;9.044;2023-07-28T07:00:08;7.33;;;3.40;;
69083;SDS011;56185;48.526;9.044;2023-07-28T07:02:34;5.30;;;3.53;;
69083;SDS011;56185;48.526;9.044;2023-07-28T07:04:59;5.97;;;3.10;;
69083;SDS011;56185;48.526;9.044;2023-07-28T07:07:24;5.07;;;3.30;;
69083;SDS011;56185;48.526;9.044;2023-07-28T07:09:49;5.67;;;3.37;;
69083;SDS011;56185;48.526;9.044;2023-07-28T07:12:15;5.50;;;3.40;;
69083;SDS011;56185;48.526;9.044;2023-07-28T07:14:40;5.37;;;3.20;;
69083;SDS011;56185;48.526;9.044;2023-07-28T07:17:05;5.27;;;3.40;;
69083;SDS011;56185;48.526;9.044;2023-07-28T07:19:30;6.67;;;3.20;;
69083;SDS011;56185;48.526;9.044;2023-07-28T07:21:56;5.33;;;3.53;;
69083;SDS011;56185;48.526;9.044;2023-07-28T07:24:21;4.03;;;3.30;;
69083;SDS011;56185;48.526;9.044;2023-07-28T07:26:46;5.15;;;3.45;;
69083;SDS011;56185;48.526;9.044;2023-07-28T07:29:11;4.90;;;3.37;;
69083;SDS011;56185;48.526;9.044;2023-07-28T07:31:37;4.37;;;3.07;;
69083;SDS011;56185;48.526;9.044;2023-07-28T07:34:02;4.83;;;3.50;;
69083;SDS011;56185;48.526;9.044;2023-07-28T07:36:27;7.57;;;3.57;;
69083;SDS011;56185;48.526;9.044;2023-07-28T07:38:52;5.67;;;3.57;;
69083;SDS011;56185;48.526;9.044;2023-07-28T07:41:18;5.60;;;3.53;;
69083;SDS011;56185;48.526;9.044;2023-07-28T07:43:43;4.47;;;3.37;;
69083;SDS011;56185;48.526;9.044;2023-07-28T07:46:08;6.30;;;3.63;;
69083;SDS011;56185;48.526;9.044;2023-07-28T07:48:33;5.03;;;3.27;;
69083;SDS011;56185;48.526;9.044;2023-07-28T07:50:58;7.97;;;3.40;;
69083;SDS011;56185;48.526;9.044;2023-07-28T07:53:24;7.13;;;3.13;;
69083;SDS011;56185;48.526;9.044;2023-07-28T07:55:49;5.37;;;3.50;;
69083;SDS011;56185;48.526;9.044;2023-07-28T07:58:14;4.57;;;3.40;;
69083;SDS011;56185;48.526;9.044;2023-07-28T08:00:40;6.05;;;3.20;;
69083;SDS011;56185;48.526;9.044;2023-07-28T08:03:05;16.17;;;4.25;;
69083;SDS011;56185;48.526;9.044;2023-07-28T08:05:30;4.83;;;3.13;;
69083;SDS011;56185;48.526;9.044;2023-07-28T08:07:56;3.85;;;2.75;;
69083;SDS011;56185;48.526;9.044;2023-07-28T08:10:21;6.40;;;3.25;;
69083;SDS011;56185;48.526;9.044;2023-07-28T08:12:46;6.13;;;2.90;;
69083;SDS011;56185;48.526;9.044;2023-07-28T08:15:11;6.83;;;3.10;;
69083;SDS011;56185;48.526;9.044;2023-07-28T08:17:37;5.40;;;3.20;;
69083;SDS011;56185;48.526;9.044;2023-07-28T08:20:02;5.00;;;3.30;;
69083;SDS011;56185;48.526;9.044;2023-07-28T08:22:27;4.78;;;2.70;;
69083;SDS011;56185;48.526;9.044;2023-07-28T08:24:52;5.47;;;2.80;;
69083;SDS011;56185;48.526;9.044;2023-07-28T08:27:18;3.20;;;2.50;;
69083;SDS011;56185;48.526;9.044;2023-07-28T08:29:43;8.20;;;2.80;;
69083;SDS011;56185;48.526;9.044;2023-07-28T08:32:08;6.80;;;2.87;;
69083;SDS011;56185;48.526;9.044;2023-07-28T08:34:33;5.07;;;2.60;;
69083;SDS011;56185;48.526;9.044;2023-07-28T08:36:59;3.33;;;2.60;;
69083;SDS011;56185;48.526;9.044;2023-07-28T08:39:24;5.17;;;2.40;;
69083;SDS011;56185;48.526;9.044;2023-07-28T08:41:57;4.80;;;2.50;;
69083;SDS011;56185;48.526;9.044;2023-07-28T08:44:23;6.00;;;2.50;;
69083;SDS011;56185;48.526;9.044;2023-07-28T08:46:48;3.42;;;2.22;;
69083;SDS011;56185;48.526;9.044;2023-07-28T08:49:13;2.90;;;2.13;;
69083;SDS011;56185;48.526;9.044;2023-07-28T08:51:41;4.97;;;2.33;;
69083;SDS011;56185;48.526;9.044;2023-07-28T08:54:07;4.43;;;2.30;;
69083;SDS011;56185;48.526;9.044;2023-07-28T08:56:32;5.00;;;2.30;;
69083;SDS011;56185;48.526;9.044;2023-07-28T08:58:58;2.70;;;2.10;;
69083;SDS011;56185;48.526;9.044;2023-07-28T09:01:24;4.72;;;2.00;;
69083;SDS011;56185;48.526;9.044;2023-07-28T09:03:49;2.87;;;2.03;;
69083;SDS011;56185;48.526;9.044;2023-07-28T09:06:14;2.27;;;1.70;;
69083;SDS011;56185;48.526;9.044;2023-07-28T09:08:39;2.97;;;2.20;;
69083;SDS011;56185;48.526;9.044;2023-07-28T09:11:05;2.37;;;1.80;;
69083;SDS011;56185;48.526;9.044;2023-07-28T09:13:38;2.65;;;2.08;;
69083;SDS011;56185;48.526;9.044;2023-07-28T09:16:05;4.72;;;2.00;;
69083;SDS011;56185;48.526;9.044;2023-07-28T09:18:40;3.30;;;2.15;;
69083;SDS011;56185;48.526;9.044;2023-07-28T09:21:05;3.17;;;2.00;;
69083;SDS011;56185;48.526;9.044;2023-07-28T09:23:31;3.77;;;2.13;;
69083;SDS011;56185;48.526;9.044;2023-07-28T09:25:59;5.73;;;1.90;;
69083;SDS011;56185;48.526;9.044;2023-07-28T09:28:36;4.40;;;1.90;;
69083;SDS011;56185;48.526;9.044;2023-07-28T09:31:02;2.45;;;1.88;;
69083;SDS011;56185;48.526;9.044;2023-07-28T09:33:29;3.65;;;1.90;;
69083;SDS011;56185;48.526;9.044;2023-07-28T09:35:56;2.60;;;1.80;;
69083;SDS011;56185;48.526;9.044;2023-07-28T09:38:21;3.00;;;2.00;;
69083;SDS011;56185;48.526;9.044;2023-07-28T09:40:47;4.15;;;1.73;;
69083;SDS011;56185;48.526;9.044;2023-07-28T09:43:13;4.22;;;1.90;;
69083;SDS011;56185;48.526;9.044;2023-07-28T09:45:39;2.97;;;1.60;;
69083;SDS011;56185;48.526;9.044;2023-07-28T09:48:05;4.82;;;1.90;;
69083;SDS011;56185;48.526;9.044;2023-07-28T09:50:32;3.55;;;2.03;;
69083;SDS011;56185;48.526;9.044;2023-07-28T09:52:58;2.78;;;1.80;;
69083;SDS011;56185;48.526;9.044;2023-07-28T09:55:28;2.80;;;1.65;;
69083;SDS011;56185;48.526;9.044;2023-07-28T09:57:54;6.28;;;1.90;;
69083;SDS011;56185;48.526;9.044;2023-07-28T10:00:21;4.03;;;1.90;;
69083;SDS011;56185;48.526;9.044;2023-07-28T10:02:47;2.50;;;1.90;;
69083;SDS011;56185;48.526;9.044;2023-07-28T10:05:13;2.85;;;1.85;;
69083;SDS011;56185;48.526;9.044;2023-07-28T10:07:39;2.40;;;1.80;;
69083;SDS011;56185;48.526;9.044;2023-07-28T10:10:06;2.97;;;1.73;;
69083;SDS011;56185;48.526;9.044;2023-07-28T10:12:40;2.55;;;1.80;;
69083;SDS011;56185;48.526;9.044;2023-07-28T10:15:06;2.92;;;1.75;;
69083;SDS011;56185;48.526;9.044;2023-07-28T10:17:32;5.93;;;1.90;;
69083;SDS011;56185;48.526;9.044;2023-07-28T10:19:59;2.28;;;1.70;;
69083;SDS011;56185;48.526;9.044;2023-07-28T10:22:25;2.80;;;1.90;;
69083;SDS011;56185;48.526;9.044;2023-07-28T10:24:55;3.92;;;1.75;;
69083;SDS011;56185;48.526;9.044;2023-07-28T10:29:59;3.33;;;1.90;;
69083;SDS011;56185;48.526;9.044;2023-07-28T10:32:26;2.85;;;1.75;;
69083;SDS011;56185;48.526;9.044;2023-07-28T10:35:34;2.45;;;1.70;;
69083;SDS011;56185;48.526;9.044;2023-07-28T10:37:43;3.05;;;1.70;;
69083;SDS011;56185;48.526;9.044;2023-07-28T10:40:28;2.65;;;1.90;;
69083;SDS011;56185;48.526;9.044;2023-07-28T10:45:20;3.05;;;1.92;;
69083;SDS011;56185;48.526;9.044;2023-07-28T10:47:47;2.90;;;1.90;;
69083;SDS011;56185;48.526;9.044;2023-07-28T10:50:13;2.00;;;1.60;;
69083;SDS011;56185;48.526;9.044;2023-07-28T10:52:39;5.35;;;2.05;;
69083;SDS011;56185;48.526;9.044;2023-07-28T10:55:12;5.57;;;1.92;;
69083;SDS011;56185;48.526;9.044;2023-07-28T10:57:44;3.92;;;1.80;;
69083;SDS011;56185;48.526;9.044;2023-07-28T11:00:11;3.50;;;2.05;;
69083;SDS011;56185;48.526;9.044;2023-07-28T11:02:41;3.75;;;2.03;;
69083;SDS011;56185;48.526;9.044;2023-07-28T11:05:09;3.50;;;2.05;;
69083;SDS011;56185;48.526;9.044;2023-07-28T11:07:35;2.80;;;2.00;;
69083;SDS011;56185;48.526;9.044;2023-07-28T11:10:01;2.97;;;2.00;;
69083;SDS011;56185;48.526;9.044;2023-07-28T11:12:27;2.33;;;1.75;;
69083;SDS011;56185;48.526;9.044;2023-07-28T11:14:52;2.95;;;2.08;;
69083;SDS011;56185;48.526;9.044;2023-07-28T11:17:17;3.85;;;1.95;;
69083;SDS011;56185;48.526;9.044;2023-07-28T11:19:43;3.00;;;1.83;;
69083;SDS011;56185;48.526;9.044;2023-07-28T11:22:08;3.93;;;2.00;;
69083;SDS011;56185;48.526;9.044;2023-07-28T11:24:33;5.10;;;2.07;;
69083;SDS011;56185;48.526;9.044;2023-07-28T11:26:58;2.33;;;1.80;;
69083;SDS011;56185;48.526;9.044;2023-07-28T11:29:23;3.30;;;1.80;;
69083;SDS011;56185;48.526;9.044;2023-07-28T11:31:49;3.50;;;1.80;;
69083;SDS011;56185;48.526;9.044;2023-07-28T11:34:17;2.95;;;1.92;;
69083;SDS011;56185;48.526;9.044;2023-07-28T11:36:43;3.42;;;2.17;;
69083;SDS011;56185;48.526;9.044;2023-07-28T11:39:08;3.08;;;2.10;;
69083;SDS011;56185;48.526;9.044;2023-07-28T11:41:34;2.70;;;2.10;;
69083;SDS011;56185;48.526;9.044;2023-07-28T11:44:00;3.13;;;2.05;;
69083;SDS011;56185;48.526;9.044;2023-07-28T11:46:35;3.25;;;1.95;;
69083;SDS011;56185;48.526;9.044;2023-07-28T11:49:14;3.15;;;2.10;;
69083;SDS011;56185;48.526;9.044;2023-07-28T11:51:42;2.95;;;2.03;;
69083;SDS011;56185;48.526;9.044;2023-07-28T11:54:12;2.50;;;1.85;;
69083;SDS011;56185;48.526;9.044;2023-07-28T11:56:40;3.42;;;1.80;;
69083;SDS011;56185;48.526;9.044;2023-07-28T11:59:06;2.88;;;1.85;;
69083;SDS011;56185;48.526;9.044;2023-07-28T12:01:31;2.83;;;1.92;;
69083;SDS011;56185;48.526;9.044;2023-07-28T12:03:57;2.92;;;2.00;;
69083;SDS011;56185;48.526;9.044;2023-07-28T12:06:22;3.83;;;2.20;;
69083;SDS011;56185;48.526;9.044;2023-07-28T12:08:47;2.70;;;1.80;;
69083;SDS011;56185;48.526;9.044;2023-07-28T12:11:13;4.07;;;2.10;;
69083;SDS011;56185;48.526;9.044;2023-07-28T12:13:51;3.40;;;1.98;;
69083;SDS011;56185;48.526;9.044;2023-07-28T12:19:18;3.92;;;2.08;;
69083;SDS011;56185;48.526;9.044;2023-07-28T12:21:43;4.73;;;2.40;;
69083;SDS011;56185;48.526;9.044;2023-07-28T12:24:08;4.27;;;2.13;;
69083;SDS011;56185;48.526;9.044;2023-07-28T12:26:34;3.10;;;1.93;;
69083;SDS011;56185;48.526;9.044;2023-07-28T12:28:59;3.93;;;2.10;;
69083;SDS011;56185;48.526;9.044;2023-07-28T12:31:24;3.47;;;2.20;;
69083;SDS011;56185;48.526;9.044;2023-07-28T12:33:49;2.73;;;1.80;;
69083;SDS011;56185;48.526;9.044;2023-07-28T12:36:14;3.27;;;2.30;;
69083;SDS011;56185;48.526;9.044;2023-07-28T12:38:40;3.20;;;1.80;;
69083;SDS011;56185;48.526;9.044;2023-07-28T12:41:06;3.70;;;2.20;;
69083;SDS011;56185;48.526;9.044;2023-07-28T12:43:31;2.73;;;2.00;;
69083;SDS011;56185;48.526;9.044;2023-07-28T12:45:57;3.53;;;2.00;;
69083;SDS011;56185;48.526;9.044;2023-07-28T12:48:22;2.97;;;2.00;;
69083;SDS011;56185;48.526;9.044;2023-07-28T12:50:47;4.28;;;2.10;;
69083;SDS011;56185;48.526;9.044;2023-07-28T12:53:13;3.38;;;1.88;;
69083;SDS011;56185;48.526;9.044;2023-07-28T12:55:38;3.20;;;2.20;;
69083;SDS011;56185;48.526;9.044;2023-07-28T12:58:03;3.25;;;2.10;;
69083;SDS011;56185;48.526;9.044;2023-07-28T13:00:29;4.15;;;2.20;;
69083;SDS011;56185;48.526;9.044;2023-07-28T13:02:54;3.87;;;2.10;;
69083;SDS011;56185;48.526;9.044;2023-07-28T13:05:19;3.30;;;2.10;;
69083;SDS011;56185;48.526;9.044;2023-07-28T13:07:44;2.60;;;1.90;;
69083;SDS011;56185;48.526;9.044;2023-07-28T13:10:10;6.07;;;2.23;;
69083;SDS011;56185;48.526;9.044;2023-07-28T13:12:36;3.88;;;2.20;;
69083;SDS011;56185;48.526;9.044;2023-07-28T13:15:02;3.17;;;2.10;;
69083;SDS011;56185;48.526;9.044;2023-07-28T13:17:27;3.42;;;2.00;;
69083;SDS011;56185;48.526;9.044;2023-07-28T13:19:53;5.47;;;2.10;;
69083;SDS011;56185;48.526;9.044;2023-07-28T13:22:18;2.47;;;1.83;;
69083;SDS011;56185;48.526;9.044;2023-07-28T13:24:43;2.90;;;1.90;;
69083;SDS011;56185;48.526;9.044;2023-07-28T13:27:08;4.67;;;2.07;;
69083;SDS011;56185;48.526;9.044;2023-07-28T13:29:34;3.67;;;2.20;;
69083;SDS011;56185;48.526;9.044;2023-07-28T13:31:59;4.93;;;2.00;;
69083;SDS011;56185;48.526;9.044;2023-07-28T13:34:25;2.60;;;1.85;;
69083;SDS011;56185;48.526;9.044;2023-07-28T13:36:54;2.58;;;1.80;;
69083;SDS011;56185;48.526;9.044;2023-07-28T13:39:20;2.83;;;2.10;;
69083;SDS011;56185;48.526;9.044;2023-07-28T13:41:45;4.90;;;2.40;;
69083;SDS011;56185;48.526;9.044;2023-07-28T13:44:11;2.80;;;2.00;;
69083;SDS011;56185;48.526;9.044;2023-07-28T13:46:36;2.90;;;2.13;;
69083;SDS011;56185;48.526;9.044;2023-07-28T13:49:01;3.30;;;2.13;;
69083;SDS011;56185;48.526;9.044;2023-07-28T13:51:27;3.28;;;2.08;;
69083;SDS011;56185;48.526;9.044;2023-07-28T13:53:52;2.93;;;2.10;;
69083;SDS011;56185;48.526;9.044;2023-07-28T13:56:17;2.60;;;2.00;;
69083;SDS011;56185;48.526;9.044;2023-07-28T13:58:43;3.33;;;2.10;;
69083;SDS011;56185;48.526;9.044;2023-07-28T14:01:08;3.47;;;2.20;;
69083;SDS011;56185;48.526;9.044;2023-07-28T14:03:33;3.77;;;2.33;;
69083;SDS011;56185;48.526;9.044;2023-07-28T14:05:58;3.37;;;2.13;;
69083;SDS011;56185;48.526;9.044;2023-07-28T14:08:24;2.92;;;2.30;;
69083;SDS011;56185;48.526;9.044;2023-07-28T14:10:49;3.03;;;2.03;;
69083;SDS011;56185;48.526;9.044;2023-07-28T14:13:14;3.30;;;2.13;;
69083;SDS011;56185;48.526;9.044;2023-07-28T14:15:39;3.00;;;2.20;;
69083;SDS011;56185;48.526;9.044;2023-07-28T14:18:05;2.77;;;2.30;;
69083;SDS011;56185;48.526;9.044;2023-07-28T14:20:30;3.37;;;2.20;;
69083;SDS011;56185;48.526;9.044;2023-07-28T14:22:55;2.80;;;2.00;;
69083;SDS011;56185;48.526;9.044;2023-07-28T14:25:20;2.90;;;2.20;;
69083;SDS011;56185;48.526;9.044;2023-07-28T14:27:46;3.00;;;2.00;;
69083;SDS011;56185;48.526;9.044;2023-07-28T14:30:11;2.80;;;2.10;;
69083;SDS011;56185;48.526;9.044;2023-07-28T14:32:36;3.20;;;2.13;;
69083;SDS011;56185;48.526;9.044;2023-07-28T14:35:01;3.77;;;2.27;;
69083;SDS011;56185;48.526;9.044;2023-07-28T14:37:27;3.20;;;2.10;;
69083;SDS011;56185;48.526;9.044;2023-07-28T14:39:52;2.83;;;2.10;;
69083;SDS011;56185;48.526;9.044;2023-07-28T14:42:17;4.50;;;2.20;;
69083;SDS011;56185;48.526;9.044;2023-07-28T14:44:42;5.50;;;2.40;;
69083;SDS011;56185;48.526;9.044;2023-07-28T14:47:07;2.67;;;2.13;;
69083;SDS011;56185;48.526;9.044;2023-07-28T14:49:33;2.60;;;2.10;;
69083;SDS011;56185;48.526;9.044;2023-07-28T14:51:58;3.80;;;2.10;;
69083;SDS011;56185;48.526;9.044;2023-07-28T14:54:24;4.53;;;2.23;;
69083;SDS011;56185;48.526;9.044;2023-07-28T14:56:49;3.00;;;2.30;;
69083;SDS011;56185;48.526;9.044;2023-07-28T14:59:14;4.07;;;2.30;;
69083;SDS011;56185;48.526;9.044;2023-07-28T15:01:39;4.30;;;2.30;;
69083;SDS011;56185;48.526;9.044;2023-07-28T15:04:05;3.67;;;2.20;;
69083;SDS011;56185;48.526;9.044;2023-07-28T15:06:30;3.43;;;2.60;;
69083;SDS011;56185;48.526;9.044;2023-07-28T15:08:56;3.50;;;2.30;;
69083;SDS011;56185;48.526;9.044;2023-07-28T15:11:21;2.83;;;2.00;;
69083;SDS011;56185;48.526;9.044;2023-07-28T15:13:46;2.87;;;2.23;;
69083;SDS011;56185;48.526;9.044;2023-07-28T15:16:12;3.03;;;2.17;;
69083;SDS011;56185;48.526;9.044;2023-07-28T15:18:37;3.37;;;2.10;;
69083;SDS011;56185;48.526;9.044;2023-07-28T15:21:02;3.63;;;2.27;;
69083;SDS011;56185;48.526;9.044;2023-07-28T15:23:27;3.65;;;2.17;;
69083;SDS011;56185;48.526;9.044;2023-07-28T15:25:53;2.67;;;2.07;;
69083;SDS011;56185;48.526;9.044;2023-07-28T15:28:18;3.75;;;2.30;;
69083;SDS011;56185;48.526;9.044;2023-07-28T15:30:44;3.25;;;2.38;;
69083;SDS011;56185;48.526;9.044;2023-07-28T15:33:09;4.47;;;2.30;;
69083;SDS011;56185;48.526;9.044;2023-07-28T15:35:35;2.77;;;2.07;;
69083;SDS011;56185;48.526;9.044;2023-07-28T15:38:00;3.43;;;2.40;;
69083;SDS011;56185;48.526;9.044;2023-07-28T15:40:25;3.42;;;2.20;;
69083;SDS011;56185;48.526;9.044;2023-07-28T15:42:51;3.20;;;2.25;;
69083;SDS011;56185;48.526;9.044;2023-07-28T15:45:16;3.00;;;2.17;;
69083;SDS011;56185;48.526;9.044;2023-07-28T15:47:41;4.30;;;2.33;;
69083;SDS011;56185;48.526;9.044;2023-07-28T15:50:06;4.20;;;2.30;;
69083;SDS011;56185;48.526;9.044;2023-07-28T15:52:32;3.03;;;2.30;;
69083;SDS011;56185;48.526;9.044;2023-07-28T15:54:58;3.37;;;2.10;;
69083;SDS011;56185;48.526;9.044;2023-07-28T15:57:23;2.92;;;2.30;;
69083;SDS011;56185;48.526;9.044;2023-07-28T15:59:49;3.17;;;2.40;;
69083;SDS011;56185;48.526;9.044;2023-07-28T16:02:14;4.27;;;2.00;;